createdAt,value
2018-04-22T00:01:26.292Z,57.80
2018-04-22T00:03:53.610Z,57.46
2018-04-22T00:06:20.700Z,57.23
2018-04-22T00:08:47.982Z,56.26
2018-04-22T00:11:14.798Z,56.78
2018-04-22T00:13:41.519Z,56.55
2018-04-22T00:16:09.736Z,57.14
2018-04-22T00:18:37.605Z,57.20
2018-04-22T00:21:05.648Z,57.13
2018-04-22T00:23:32.987Z,57.01
2018-04-22T00:26:01.091Z,56.86
2018-04-22T00:28:30.440Z,57.05
2018-04-22T00:30:58.416Z,57.46
2018-04-22T00:33:26.776Z,57.93
2018-04-22T00:35:54.730Z,57.39
2018-04-22T00:38:22.152Z,57.75
2018-04-22T00:40:49.263Z,57.48
2018-04-22T00:43:16.603Z,57.53
2018-04-22T00:45:45.275Z,57.95
2018-04-22T00:48:13.555Z,57.68
2018-04-22T00:50:41.081Z,56.88
2018-04-22T00:53:10.012Z,56.91
2018-04-22T00:55:38.572Z,57.33
2018-04-22T00:58:06.727Z,57.00
2018-04-22T01:00:36.798Z,57.30
2018-04-22T01:03:03.865Z,58.27
2018-04-22T01:05:31.652Z,57.73
2018-04-22T01:08:00.499Z,57.47
2018-04-22T01:10:28.219Z,57.36
2018-04-22T01:12:55.778Z,57.31
2018-04-22T01:15:23.992Z,57.49
2018-04-22T01:17:50.873Z,57.62
2018-04-22T01:20:18.544Z,57.75
2018-04-22T01:22:46.421Z,58.07
2018-04-22T01:25:13.638Z,58.23
2018-04-22T01:27:41.373Z,57.94
2018-04-22T01:30:10.741Z,57.86
2018-04-22T01:32:39.377Z,58.19
2018-04-22T01:35:07.201Z,58.73
2018-04-22T01:37:35.043Z,58.75
2018-04-22T01:40:01.733Z,58.81
2018-04-22T01:42:29.638Z,58.37
2018-04-22T01:44:56.423Z,59.01
2018-04-22T01:47:23.541Z,58.42
2018-04-22T01:49:51.305Z,58.64
2018-04-22T01:52:18.914Z,58.81
2018-04-22T01:54:47.901Z,58.33
2018-04-22T01:57:15.042Z,58.17
2018-04-22T01:59:44.920Z,58.17
2018-04-22T02:02:13.238Z,58.19
2018-04-22T02:04:41.413Z,58.96
2018-04-22T02:07:08.432Z,58.37
2018-04-22T02:09:35.109Z,58.58
2018-04-22T02:12:03.883Z,58.55
2018-04-22T02:14:31.711Z,59.06
2018-04-22T02:17:00.415Z,58.70
2018-04-22T02:19:29.311Z,58.63
2018-04-22T02:21:56.675Z,58.74
2018-04-22T02:24:23.355Z,58.31
2018-04-22T02:26:51.929Z,58.18
2018-04-22T02:29:19.972Z,57.98
2018-04-22T02:31:48.276Z,57.75
2018-04-22T02:34:15.992Z,58.57
2018-04-22T02:36:42.976Z,58.35
2018-04-22T02:39:10.059Z,58.04
2018-04-22T02:41:37.926Z,57.76
2018-04-22T02:44:05.477Z,58.23
2018-04-22T02:46:32.281Z,57.65
2018-04-22T02:49:00.883Z,57.60
2018-04-22T02:51:28.793Z,57.65
2018-04-22T02:53:59.696Z,57.85
2018-04-22T02:56:26.798Z,58.01
2018-04-22T02:58:55.697Z,58.28
2018-04-22T03:01:24.422Z,57.82
2018-04-22T03:03:52.627Z,57.61
2018-04-22T03:06:20.125Z,57.94
2018-04-22T03:08:48.228Z,58.64
2018-04-22T03:11:16.445Z,58.49
2018-04-22T03:13:44.932Z,58.08
2018-04-22T03:16:12.492Z,57.88
2018-04-22T03:18:40.667Z,58.79
2018-04-22T03:21:08.085Z,59.19
2018-04-22T03:23:35.266Z,58.41
2018-04-22T03:26:02.994Z,57.99
2018-04-22T03:28:30.865Z,58.14
2018-04-22T03:31:00.108Z,58.42
2018-04-22T03:33:27.875Z,58.58
2018-04-22T03:35:55.435Z,58.72
2018-04-22T03:38:23.490Z,58.23
2018-04-22T03:40:50.232Z,57.39
2018-04-22T03:43:16.924Z,56.95
2018-04-22T03:45:45.243Z,57.25
2018-04-22T03:48:12.157Z,58.14
2018-04-22T03:53:13.340Z,58.36
2018-04-22T03:55:40.689Z,58.77
2018-04-22T03:58:09.986Z,58.50
2018-04-22T04:00:37.777Z,58.02
2018-04-22T04:03:04.634Z,57.85
2018-04-22T04:05:31.371Z,58.70
2018-04-22T04:07:59.258Z,58.66
2018-04-22T04:10:26.932Z,58.38
2018-04-22T04:12:55.311Z,58.14
2018-04-22T04:15:22.891Z,58.49
2018-04-22T04:18:03.867Z,57.94
2018-04-22T04:20:43.315Z,58.59
2018-04-22T04:23:10.926Z,58.33
2018-04-22T04:25:53.698Z,58.64
2018-04-22T04:28:22.561Z,58.65
2018-04-22T04:30:49.767Z,58.49
2018-04-22T04:33:17.043Z,58.59
2018-04-22T04:35:44.656Z,59.06
2018-04-22T04:38:13.377Z,58.27
2018-04-22T04:40:44.116Z,58.23
2018-04-22T04:43:11.363Z,58.77
2018-04-22T04:45:46.271Z,58.79
2018-04-22T04:48:13.566Z,59.20
2018-04-22T04:50:41.993Z,58.41
2018-04-22T04:53:10.278Z,58.43
2018-04-22T04:55:37.998Z,58.42
2018-04-22T04:58:05.596Z,57.99
2018-04-22T05:00:32.360Z,58.18
2018-04-22T05:02:59.143Z,58.07
2018-04-22T05:05:27.296Z,58.36
2018-04-22T05:07:55.295Z,57.90
2018-04-22T05:10:23.051Z,58.03
2018-04-22T05:12:53.173Z,58.58
2018-04-22T05:15:20.081Z,57.95
2018-04-22T05:17:47.624Z,57.83
2018-04-22T05:20:15.620Z,57.85
2018-04-22T05:22:45.161Z,57.87
2018-04-22T05:25:13.749Z,58.42
2018-04-22T05:27:41.691Z,57.71
2018-04-22T05:30:10.207Z,56.53
2018-04-22T05:32:37.129Z,55.86
2018-04-22T05:35:04.795Z,55.71
2018-04-22T05:37:34.728Z,55.75
2018-04-22T05:40:02.758Z,54.86
2018-04-22T05:42:31.062Z,55.13
2018-04-22T05:44:59.255Z,54.71
2018-04-22T05:47:26.910Z,54.98
2018-04-22T05:49:54.868Z,55.63
2018-04-22T05:52:22.363Z,55.61
2018-04-22T05:54:50.572Z,54.71
2018-04-22T05:57:18.982Z,54.08
2018-04-22T05:59:46.940Z,54.35
2018-04-22T06:02:14.549Z,53.42
2018-04-22T06:04:43.170Z,53.39
2018-04-22T06:07:10.527Z,52.87
2018-04-22T06:09:38.088Z,52.98
2018-04-22T06:12:05.395Z,53.28
2018-04-22T06:14:34.251Z,51.97
2018-04-22T06:17:01.812Z,52.17
2018-04-22T06:19:30.995Z,52.00
2018-04-22T06:21:58.830Z,52.08
2018-04-22T06:24:26.375Z,52.37
2018-04-22T06:26:53.478Z,51.79
2018-04-22T06:29:20.285Z,50.79
2018-04-22T06:31:48.050Z,50.85
2018-04-22T06:34:15.251Z,51.95
2018-04-22T06:36:43.008Z,51.47
2018-04-22T06:39:11.312Z,51.48
2018-04-22T06:41:38.514Z,50.64
2018-04-22T06:44:05.790Z,50.88
2018-04-22T06:46:33.709Z,50.70
2018-04-22T06:49:07.018Z,50.22
2018-04-22T06:51:33.541Z,50.30
2018-04-22T06:54:01.673Z,50.48
2018-04-22T06:56:29.849Z,50.24
2018-04-22T06:58:57.161Z,49.99
2018-04-22T07:01:25.010Z,49.97
2018-04-22T07:03:55.352Z,50.29
2018-04-22T07:06:22.586Z,50.40
2018-04-22T07:08:49.942Z,50.72
2018-04-22T07:11:16.979Z,51.28
2018-04-22T07:13:47.165Z,50.23
2018-04-22T07:16:15.217Z,50.14
2018-04-22T07:18:43.261Z,50.05
2018-04-22T07:21:17.016Z,49.87
2018-04-22T07:23:45.933Z,49.81
2018-04-22T07:26:13.108Z,49.40
2018-04-22T07:28:41.263Z,49.36
2018-04-22T07:31:11.825Z,49.49
2018-04-22T07:33:39.739Z,49.38
2018-04-22T07:36:13.439Z,48.79
2018-04-22T07:38:40.735Z,48.73
2018-04-22T07:41:08.752Z,48.99
2018-04-22T07:43:38.756Z,48.34
2018-04-22T07:46:07.905Z,48.43
2018-04-22T07:48:35.192Z,48.52
2018-04-22T07:51:03.023Z,48.12
2018-04-22T07:53:30.836Z,48.44
2018-04-22T07:56:00.230Z,48.32
2018-04-22T07:58:29.010Z,48.41
2018-04-22T08:00:56.241Z,47.91
2018-04-22T08:03:24.546Z,48.45
2018-04-22T08:05:51.691Z,48.23
2018-04-22T08:08:20.889Z,48.10
2018-04-22T08:10:47.536Z,47.73
2018-04-22T08:13:17.418Z,46.57
2018-04-22T08:15:45.446Z,45.70
2018-04-22T08:18:12.412Z,45.28
2018-04-22T08:20:40.294Z,45.70
2018-04-22T08:23:08.454Z,45.61
2018-04-22T08:25:35.756Z,45.60
2018-04-22T08:28:03.615Z,44.89
2018-04-22T08:30:31.955Z,44.58
2018-04-22T08:33:01.040Z,45.01
2018-04-22T08:35:28.007Z,45.48
2018-04-22T08:37:56.437Z,45.29
2018-04-22T08:40:25.379Z,43.99
2018-04-22T08:42:56.600Z,43.10
2018-04-22T08:45:25.380Z,43.17
2018-04-22T08:47:56.064Z,42.68
2018-04-22T08:50:24.427Z,43.22
2018-04-22T08:52:52.230Z,42.55
2018-04-22T08:55:19.766Z,43.16
2018-04-22T08:57:47.220Z,42.54
2018-04-22T09:00:15.449Z,43.14
2018-04-22T09:02:42.806Z,42.04
2018-04-22T09:05:11.557Z,41.10
2018-04-22T09:07:40.818Z,40.72
2018-04-22T09:10:08.760Z,41.40
2018-04-22T09:12:36.341Z,41.70
2018-04-22T09:15:04.684Z,41.41
2018-04-22T09:17:31.408Z,41.34
2018-04-22T09:20:00.039Z,41.36
2018-04-22T09:22:28.273Z,42.05
2018-04-22T09:24:56.636Z,40.07
2018-04-22T09:27:23.713Z,40.75
2018-04-22T09:29:50.695Z,39.83
2018-04-22T09:32:18.038Z,40.42
2018-04-22T09:34:46.293Z,38.65
2018-04-22T09:37:14.122Z,38.96
2018-04-22T09:39:42.734Z,36.44
2018-04-22T09:42:10.744Z,38.34
2018-04-22T09:44:38.886Z,37.92
2018-04-22T09:47:06.194Z,35.74
2018-04-22T09:49:35.455Z,37.67
2018-04-22T09:52:05.448Z,37.47
2018-04-22T09:54:32.638Z,35.71
2018-04-22T09:57:00.085Z,36.29
2018-04-22T09:59:28.196Z,34.86
2018-04-22T10:01:59.701Z,34.34
2018-04-22T10:04:29.187Z,34.17
2018-04-22T10:06:57.004Z,34.46
2018-04-22T10:09:25.937Z,33.93
2018-04-22T10:11:52.665Z,34.31
2018-04-22T10:14:19.633Z,35.13
2018-04-22T10:16:49.747Z,35.12
2018-04-22T10:19:20.028Z,35.27
2018-04-22T10:21:51.916Z,34.20
2018-04-22T10:24:24.061Z,33.94
2018-04-22T10:26:57.008Z,33.97
2018-04-22T10:29:32.270Z,33.56
2018-04-22T10:32:04.516Z,33.65
2018-04-22T10:34:35.949Z,34.08
2018-04-22T10:37:04.016Z,32.48
2018-04-22T10:39:34.029Z,33.72
2018-04-22T10:42:03.114Z,32.55
2018-04-22T10:44:30.528Z,32.45
2018-04-22T10:46:58.786Z,33.11
2018-04-22T10:49:25.625Z,32.73
2018-04-22T10:51:55.360Z,32.64
2018-04-22T10:54:29.997Z,33.16
2018-04-22T10:57:00.631Z,32.49
2018-04-22T10:59:32.064Z,32.93
2018-04-22T11:02:00.986Z,33.51
2018-04-22T11:04:31.348Z,33.94
2018-04-22T11:07:01.313Z,34.10
2018-04-22T11:09:30.183Z,33.60
2018-04-22T11:11:59.866Z,33.32
2018-04-22T11:14:29.717Z,33.21
2018-04-22T11:17:01.645Z,33.36
2018-04-22T11:19:38.884Z,33.47
2018-04-22T11:22:10.005Z,33.24
2018-04-22T11:24:40.476Z,32.92
2018-04-22T11:27:11.613Z,33.11
2018-04-22T11:29:42.915Z,32.82
2018-04-22T11:32:14.303Z,32.79
2018-04-22T11:34:44.213Z,32.59
2018-04-22T11:37:14.446Z,32.59
2018-04-22T11:39:45.158Z,33.37
2018-04-22T11:42:14.402Z,33.14
2018-04-22T11:44:48.326Z,33.20
2018-04-22T11:47:21.031Z,32.79
2018-04-22T11:49:54.223Z,33.08
2018-04-22T11:52:24.693Z,32.90
2018-04-22T11:54:59.169Z,32.83
2018-04-22T11:57:30.550Z,33.18
2018-04-22T12:00:02.853Z,32.85
2018-04-22T12:02:32.771Z,33.00
2018-04-22T12:05:02.944Z,32.84
2018-04-22T12:07:30.189Z,32.61
2018-04-22T12:09:57.668Z,32.50
2018-04-22T12:12:25.882Z,33.81
2018-04-22T12:14:56.952Z,32.19
2018-04-22T12:17:24.772Z,32.29
2018-04-22T12:19:53.751Z,32.22
2018-04-22T12:22:21.857Z,32.42
2018-04-22T12:24:54.972Z,32.63
2018-04-22T12:27:22.808Z,35.08
2018-04-22T12:29:50.611Z,32.74
2018-04-22T12:32:21.660Z,33.44
2018-04-22T12:34:53.075Z,33.62
2018-04-22T12:37:21.439Z,33.97
2018-04-22T12:39:48.657Z,32.47
2018-04-22T12:42:18.428Z,35.20
2018-04-22T12:44:46.698Z,34.92
2018-04-22T12:47:17.581Z,33.47
2018-04-22T12:49:45.075Z,33.88
2018-04-22T12:52:14.160Z,33.36
2018-04-22T12:54:44.323Z,32.38
2018-04-22T12:57:12.560Z,32.08
2018-04-22T12:59:39.120Z,33.01
2018-04-22T13:02:06.624Z,33.59
2018-04-22T13:04:34.756Z,33.06
2018-04-22T13:07:02.079Z,33.57
2018-04-22T13:09:31.452Z,33.58
2018-04-22T13:12:00.576Z,32.54
2018-04-22T13:14:27.786Z,32.39
2018-04-22T13:16:56.748Z,32.67
2018-04-22T13:19:26.976Z,31.32
2018-04-22T13:21:54.283Z,30.99
2018-04-22T13:24:22.117Z,31.20
2018-04-22T13:26:49.511Z,31.55
2018-04-22T13:29:16.212Z,31.96
2018-04-22T13:31:45.075Z,31.85
2018-04-22T13:34:13.342Z,30.87
2018-04-22T13:36:42.248Z,31.11
2018-04-22T13:39:09.566Z,31.66
2018-04-22T13:41:38.226Z,32.01
2018-04-22T13:44:06.824Z,31.18
2018-04-22T13:46:34.411Z,30.08
2018-04-22T13:49:02.486Z,30.95
2018-04-22T13:51:31.145Z,30.28
2018-04-22T13:53:59.432Z,30.48
2018-04-22T13:56:27.798Z,30.92
2018-04-22T13:58:55.157Z,31.92
2018-04-22T14:01:22.607Z,30.90
2018-04-22T14:03:50.396Z,30.71
2018-04-22T14:06:17.683Z,31.05
2018-04-22T14:08:45.119Z,31.10
2018-04-22T14:11:13.829Z,31.15
2018-04-22T14:13:40.847Z,31.11
2018-04-22T14:16:07.585Z,31.70
2018-04-22T14:18:34.300Z,30.06
2018-04-22T14:21:01.466Z,30.10
2018-04-22T14:23:31.575Z,30.73
2018-04-22T14:25:59.090Z,30.44
2018-04-22T14:28:27.644Z,30.09
2018-04-22T14:30:54.284Z,29.01
2018-04-22T14:33:21.776Z,28.44
2018-04-22T14:35:50.346Z,28.79
2018-04-22T14:38:17.524Z,28.33
2018-04-22T14:40:45.317Z,28.40
2018-04-22T14:43:12.529Z,27.58
2018-04-22T14:45:52.914Z,28.68
2018-04-22T14:48:20.572Z,28.59
2018-04-22T14:50:47.322Z,28.11
2018-04-22T14:53:14.778Z,28.17
2018-04-22T14:55:43.283Z,27.94
2018-04-22T14:58:12.356Z,28.65
2018-04-22T15:00:42.128Z,29.23
2018-04-22T15:03:09.696Z,29.20
2018-04-22T15:05:37.502Z,29.06
2018-04-22T15:08:05.050Z,27.74
2018-04-22T15:10:32.920Z,27.94
2018-04-22T15:13:01.573Z,27.68
2018-04-22T15:15:29.868Z,27.99
2018-04-22T15:17:58.036Z,28.71
2018-04-22T15:20:25.850Z,28.95
2018-04-22T15:22:53.451Z,29.06
2018-04-22T15:25:23.076Z,28.57
2018-04-22T15:27:50.471Z,29.08
2018-04-22T15:30:17.695Z,28.57
2018-04-22T15:32:44.608Z,28.02
2018-04-22T15:35:12.092Z,28.44
2018-04-22T15:37:40.600Z,28.21
2018-04-22T15:40:08.565Z,28.29
2018-04-22T15:42:37.907Z,28.94
2018-04-22T15:45:07.915Z,28.77
2018-04-22T15:47:34.918Z,28.43
2018-04-22T15:50:04.345Z,28.64
2018-04-22T15:52:31.267Z,28.64
2018-04-22T15:54:58.500Z,28.88
2018-04-22T15:57:26.326Z,28.98
2018-04-22T15:59:55.773Z,28.94
2018-04-22T16:02:25.815Z,28.13
2018-04-22T16:07:35.660Z,28.49
2018-04-22T16:10:02.987Z,28.40
2018-04-22T16:12:29.915Z,28.33
2018-04-22T16:14:56.929Z,28.55
2018-04-22T16:17:25.449Z,27.54
2018-04-22T16:19:52.436Z,27.68
2018-04-22T16:22:20.051Z,27.55
2018-04-22T16:24:47.713Z,28.00
2018-04-22T16:27:16.105Z,28.08
2018-04-22T16:36:16.564Z,27.70
2018-04-22T16:38:52.337Z,28.84
2018-04-22T16:41:19.092Z,28.29
2018-04-22T16:43:47.546Z,29.36
2018-04-22T16:46:14.271Z,28.55
2018-04-22T16:48:40.972Z,28.69
2018-04-22T16:51:08.553Z,29.22
2018-04-22T16:53:36.304Z,28.88
2018-04-22T16:56:04.912Z,29.36
2018-04-22T16:58:32.015Z,29.23
2018-04-22T17:00:59.025Z,29.75
2018-04-22T17:03:29.301Z,29.41
2018-04-22T17:05:58.460Z,29.39
2018-04-22T17:08:24.968Z,29.85
2018-04-22T17:10:51.863Z,29.73
2018-04-22T17:13:23.700Z,29.92
2018-04-22T17:15:53.325Z,29.85
2018-04-22T17:18:21.907Z,29.90
2018-04-22T17:20:49.953Z,29.44
2018-04-22T17:23:21.123Z,29.48
2018-04-22T17:25:51.561Z,29.86
2018-04-22T17:28:22.803Z,29.84
2018-04-22T17:30:49.697Z,29.94
2018-04-22T17:33:19.316Z,30.36
2018-04-22T17:35:46.075Z,30.48
2018-04-22T17:38:14.718Z,30.47
2018-04-22T17:40:43.056Z,30.77
2018-04-22T17:43:10.931Z,30.85
2018-04-22T17:45:37.549Z,31.60
2018-04-22T17:48:07.582Z,32.68
2018-04-22T17:50:35.435Z,32.77
2018-04-22T17:53:02.603Z,33.48
2018-04-22T17:55:30.096Z,33.72
2018-04-22T17:57:57.019Z,33.79
2018-04-22T18:00:25.133Z,33.82
2018-04-22T18:02:51.895Z,33.87
2018-04-22T18:05:19.372Z,33.77
2018-04-22T18:07:47.222Z,33.82
2018-04-22T18:10:13.905Z,33.70
2018-04-22T18:12:40.700Z,33.46
2018-04-22T18:15:07.470Z,33.52
2018-04-22T18:17:36.259Z,33.60
2018-04-22T18:20:03.545Z,33.54
2018-04-22T18:22:33.250Z,33.72
2018-04-22T18:25:03.436Z,34.06
2018-04-22T18:27:30.624Z,34.36
2018-04-22T18:29:57.947Z,34.65
2018-04-22T18:32:25.040Z,35.04
2018-04-22T18:34:52.030Z,35.41
2018-04-22T18:37:19.245Z,35.79
2018-04-22T18:39:47.615Z,35.91
2018-04-22T18:42:16.317Z,36.30
2018-04-22T18:44:47.361Z,36.50
2018-04-22T18:47:16.597Z,36.73
2018-04-22T18:49:45.269Z,36.73
2018-04-22T18:52:12.668Z,37.23
2018-04-22T18:54:41.888Z,37.34
2018-04-22T18:57:10.255Z,37.70
2018-04-22T18:59:37.227Z,37.84
2018-04-22T19:02:05.384Z,37.98
2018-04-22T19:04:33.980Z,38.00
2018-04-22T19:07:01.188Z,38.07
2018-04-22T19:09:28.820Z,38.21
2018-04-22T19:11:56.472Z,38.24
2018-04-22T19:14:23.216Z,38.36
2018-04-22T19:16:52.170Z,38.36
2018-04-22T19:19:20.111Z,38.71
2018-04-22T19:21:47.378Z,38.86
2018-04-22T19:24:15.897Z,38.76
2018-04-22T19:26:42.947Z,38.92
2018-04-22T19:29:09.577Z,38.94
2018-04-22T19:31:36.657Z,38.88
2018-04-22T19:34:04.084Z,39.06
2018-04-22T19:36:30.866Z,39.50
2018-04-22T19:38:58.709Z,39.70
2018-04-22T19:41:25.619Z,39.99
2018-04-22T19:43:52.703Z,40.07
2018-04-22T19:46:20.874Z,40.09
2018-04-22T19:48:48.928Z,40.15
2018-04-22T19:51:16.688Z,40.25
2018-04-22T19:53:44.097Z,40.23
2018-04-22T19:56:11.790Z,40.25
2018-04-22T19:58:39.627Z,40.11
2018-04-22T20:01:08.042Z,40.12
2018-04-22T20:03:37.867Z,40.16
2018-04-22T20:06:05.808Z,39.88
2018-04-22T20:08:32.841Z,39.68
2018-04-22T20:11:00.395Z,39.83
2018-04-22T20:13:28.436Z,40.04
2018-04-22T20:15:56.983Z,40.00
2018-04-22T20:18:25.768Z,40.01
2018-04-22T20:20:54.406Z,40.07
2018-04-22T20:23:23.220Z,40.23
2018-04-22T20:25:54.354Z,40.39
2018-04-22T20:28:21.814Z,40.34
2018-04-22T20:30:51.607Z,40.16
2018-04-22T20:33:19.306Z,40.20
2018-04-22T20:35:47.521Z,40.35
2018-04-22T20:38:14.723Z,40.46
2018-04-22T20:40:45.485Z,40.63
2018-04-22T20:43:13.890Z,40.46
2018-04-22T20:45:44.599Z,40.53
2018-04-22T20:48:19.144Z,40.34
2018-04-22T20:50:53.575Z,40.13
2018-04-22T20:53:23.479Z,39.75
2018-04-22T20:55:53.030Z,40.11
2018-04-22T20:58:20.139Z,40.42
2018-04-22T21:00:48.731Z,40.55
2018-04-22T21:03:17.932Z,40.53
2018-04-22T21:05:46.031Z,40.45
2018-04-22T21:08:14.324Z,40.59
2018-04-22T21:10:42.578Z,40.58
2018-04-22T21:13:09.371Z,40.70
2018-04-22T21:15:37.088Z,40.92
2018-04-22T21:18:06.720Z,41.15
2018-04-22T21:20:36.564Z,41.37
2018-04-22T21:23:05.881Z,41.62
2018-04-22T21:25:35.229Z,41.94
2018-04-22T21:28:04.716Z,42.07
2018-04-22T21:30:31.868Z,42.18
2018-04-22T21:33:03.725Z,42.28
2018-04-22T21:35:30.923Z,42.13
2018-04-22T21:37:57.805Z,42.18
2018-04-22T21:40:26.891Z,42.33
2018-04-22T21:42:55.074Z,41.77
2018-04-22T21:45:21.913Z,42.29
2018-04-22T21:47:49.823Z,42.37
2018-04-22T21:50:17.172Z,42.28
2018-04-22T21:52:44.531Z,42.66
2018-04-22T21:55:11.560Z,43.20
2018-04-22T21:57:40.944Z,43.48
2018-04-22T22:00:09.265Z,43.83
2018-04-22T22:02:40.340Z,43.72
2018-04-22T22:05:10.925Z,43.62
2018-04-22T22:07:40.135Z,43.77
2018-04-22T22:10:07.164Z,44.02
2018-04-22T22:12:35.675Z,43.97
2018-04-22T22:15:03.762Z,44.27
2018-04-22T22:17:31.976Z,44.36
2018-04-22T22:20:03.972Z,44.47
2018-04-22T22:22:32.887Z,44.53
2018-04-22T22:25:01.865Z,44.72
2018-04-22T22:27:30.058Z,44.97
2018-04-22T22:30:00.719Z,45.06
2018-04-22T22:32:27.794Z,45.02
2018-04-22T22:34:56.955Z,45.20
2018-04-22T22:37:29.105Z,45.22
2018-04-22T22:40:00.111Z,45.36
2018-04-22T22:42:28.401Z,44.96
2018-04-22T22:44:58.648Z,45.27
2018-04-22T22:47:27.260Z,45.72
2018-04-22T22:49:55.511Z,45.73
2018-04-22T22:52:22.525Z,45.85
2018-04-22T22:54:50.156Z,46.25
2018-04-22T22:57:17.171Z,46.31
2018-04-22T22:59:45.749Z,46.18
2018-04-22T23:02:13.806Z,46.03
2018-04-22T23:04:41.536Z,46.30
2018-04-22T23:07:09.364Z,46.44
2018-04-22T23:09:37.412Z,46.46
2018-04-22T23:12:06.317Z,46.33
2018-04-22T23:14:34.633Z,46.67
2018-04-22T23:30:04.330Z,45.58
2018-04-22T23:32:30.778Z,45.90
2018-04-22T23:34:57.290Z,46.27
2018-04-22T23:37:23.745Z,46.75
2018-04-22T23:39:50.240Z,47.18
2018-04-22T23:42:16.780Z,47.52
2018-04-22T23:44:43.282Z,47.69
2018-04-22T23:47:09.808Z,47.83
2018-04-22T23:49:36.235Z,48.07
2018-04-22T23:52:02.743Z,48.30
2018-04-22T23:54:29.204Z,48.36
2018-04-22T23:56:55.641Z,48.37
2018-04-22T23:59:22.149Z,48.51
